Time;durP1;ratioP1;P1;durP2;ratioP2;P2;SDS_P1;SDS_P2;PMS_P1;PMS_P2;Temp;Humidity;BMP_temperature;BMP_pressure;BME280_temperature;BME280_humidity;BME280_pressure;Samples;Min_cycle;Max_cycle;Signal;HPM_P1;HPM_P2
2022/01/10 00:02:03;;;;;;;84.20;39.17;;;-6.20;99.90;;;;;;5056641;28;20022;-74
2022/01/10 00:04:28;;;;;;;84.33;38.13;;;-6.30;99.90;;;;;;5031609;28;20013;-74
2022/01/10 00:06:54;;;;;;;80.17;38.87;;;-6.30;99.90;;;;;;5013995;28;20040;-74
2022/01/10 00:09:19;;;;;;;84.10;42.40;;;-6.30;99.90;;;;;;5031613;28;20025;-73
2022/01/10 00:11:45;;;;;;;92.67;37.83;;;-6.30;99.90;;;;;;5031511;28;20037;-73
2022/01/10 00:14:10;;;;;;;69.97;33.20;;;-6.30;99.90;;;;;;5031560;28;20025;-73
2022/01/10 00:16:36;;;;;;;57.57;30.47;;;-6.40;99.90;;;;;;5031510;28;20053;-74
2022/01/10 00:19:02;;;;;;;60.67;30.13;;;-6.30;99.90;;;;;;5017922;28;20017;-74
2022/01/10 00:21:27;;;;;;;69.55;29.42;;;-6.20;99.90;;;;;;5031410;28;20041;-73
2022/01/10 00:23:53;;;;;;;64.77;29.93;;;-6.20;99.90;;;;;;5031292;28;20104;-74
2022/01/10 00:26:18;;;;;;;79.50;34.95;;;-6.10;99.90;;;;;;5031102;28;20101;-73
2022/01/10 00:28:44;;;;;;;86.87;37.10;;;-6.20;99.90;;;;;;5030087;28;20053;-74
2022/01/10 00:31:10;;;;;;;83.15;36.92;;;-6.20;99.90;;;;;;5029915;28;20017;-74
2022/01/10 00:33:35;;;;;;;87.43;37.30;;;-6.20;99.90;;;;;;5030019;28;20116;-74
2022/01/10 00:36:01;;;;;;;93.15;38.08;;;-6.30;99.90;;;;;;5031301;28;20025;-73
2022/01/10 00:38:27;;;;;;;68.67;32.40;;;-6.40;99.90;;;;;;5031199;28;20022;-74
2022/01/10 00:40:53;;;;;;;59.97;27.00;;;-6.30;99.90;;;;;;5031213;28;20433;-74
2022/01/10 00:43:29;;;;;;;63.23;30.03;;;-6.30;99.90;;;;;;5031260;28;20029;-73
2022/01/10 00:45:55;;;;;;;61.90;28.43;;;-6.30;99.90;;;;;;5029958;28;20082;-74
2022/01/10 00:48:21;;;;;;;61.77;27.17;;;-6.20;99.90;;;;;;5031205;28;20029;-74
2022/01/10 00:50:46;;;;;;;54.50;27.73;;;-6.10;99.90;;;;;;5031095;28;20426;-73
2022/01/10 00:53:12;;;;;;;61.33;29.67;;;-6.00;99.90;;;;;;5031088;28;20040;-74
2022/01/10 00:55:38;;;;;;;56.73;28.83;;;-6.00;99.90;;;;;;5029767;28;20498;-73
2022/01/10 00:58:03;;;;;;;47.40;24.33;;;-6.00;99.90;;;;;;5031148;28;20025;-73
2022/01/10 01:00:29;;;;;;;51.30;23.03;;;-6.00;99.90;;;;;;5030995;28;20022;-74
2022/01/10 01:02:54;;;;;;;56.45;25.38;;;-6.00;99.90;;;;;;5031076;28;20116;-74
2022/01/10 01:05:22;;;;;;;51.92;27.38;;;-6.00;99.90;;;;;;5031022;28;20105;-73
2022/01/10 01:07:48;;;;;;;59.43;26.27;;;-6.00;99.90;;;;;;5031045;28;20022;-74
2022/01/10 01:13:02;;;;;;;58.72;28.88;;;-6.00;99.90;;;;;;5031284;28;20169;-73
2022/01/10 01:15:33;;;;;;;58.67;27.77;;;-5.90;99.90;;;;;;5030937;28;20010;-74
2022/01/10 01:25:56;;;;;;;59.97;24.27;;;-6.20;99.90;;;;;;5031153;28;20083;-73
2022/01/10 01:28:22;;;;;;;54.07;26.80;;;-6.20;99.90;;;;;;5030688;28;20021;-74
2022/01/10 01:30:48;;;;;;;58.70;28.20;;;-6.20;99.90;;;;;;5030738;28;20065;-73
2022/01/10 01:33:15;;;;;;;57.95;27.45;;;-6.20;99.90;;;;;;5030680;28;20045;-73
2022/01/10 01:35:41;;;;;;;59.43;26.00;;;-6.30;99.90;;;;;;5029440;28;20072;-73
2022/01/10 01:38:07;;;;;;;52.73;27.77;;;-6.30;99.90;;;;;;5033792;28;20049;-74
2022/01/10 01:40:43;;;;;;;60.70;27.87;;;-6.40;99.90;;;;;;5034414;28;20097;-73
2022/01/10 01:43:09;;;;;;;62.50;26.33;;;-6.40;99.90;;;;;;5034499;28;20025;-73
2022/01/10 01:45:46;;;;;;;66.17;27.90;;;-6.40;99.90;;;;;;5034416;28;20034;-73
2022/01/10 01:48:12;;;;;;;65.53;29.33;;;-6.50;99.90;;;;;;5034338;28;20022;-74
2022/01/10 01:50:39;;;;;;;61.73;27.47;;;-6.50;99.90;;;;;;5034176;28;20052;-75
2022/01/10 01:53:06;;;;;;;58.03;25.63;;;-6.50;99.90;;;;;;5034185;28;20034;-76
2022/01/10 01:55:32;;;;;;;51.83;24.20;;;-6.50;99.90;;;;;;5034055;28;20018;-76
2022/01/10 01:57:58;;;;;;;48.63;22.33;;;-6.60;99.90;;;;;;5033246;28;20513;-76
2022/01/10 02:00:25;;;;;;;48.17;23.77;;;-6.60;99.90;;;;;;5033941;28;20521;-76
2022/01/10 02:02:51;;;;;;;44.90;22.40;;;-6.70;99.90;;;;;;5034041;28;20076;-76
2022/01/10 02:05:17;;;;;;;53.97;25.73;;;-6.70;99.90;;;;;;5034117;28;20364;-76
2022/01/10 02:07:43;;;;;;;44.13;21.03;;;-6.70;99.90;;;;;;5033892;28;20119;-77
2022/01/10 02:10:09;;;;;;;46.47;21.53;;;-6.70;99.90;;;;;;5033752;28;20021;-76
2022/01/10 02:12:35;;;;;;;53.23;23.13;;;-6.60;99.90;;;;;;5033708;28;20032;-76
2022/01/10 02:15:00;;;;;;;55.00;25.13;;;-6.60;99.90;;;;;;5033791;28;20021;-76
2022/01/10 02:17:34;;;;;;;66.53;31.33;;;-6.70;99.90;;;;;;5033777;28;20053;-74
2022/01/10 02:20:02;;;;;;;70.27;32.37;;;-6.60;99.90;;;;;;5032671;28;20108;-74
2022/01/10 02:22:28;;;;;;;59.80;29.20;;;-6.60;99.90;;;;;;5033631;28;20104;-74
2022/01/10 02:24:54;;;;;;;76.87;31.17;;;-6.60;99.90;;;;;;5033619;28;20068;-74
2022/01/10 02:27:24;;;;;;;55.70;24.90;;;-6.60;99.90;;;;;;5032334;28;20028;-74
2022/01/10 02:29:51;;;;;;;67.37;28.17;;;-6.60;99.90;;;;;;5033499;28;20029;-75
2022/01/10 02:32:18;;;;;;;76.47;31.37;;;-6.60;99.90;;;;;;5033414;28;20033;-75
2022/01/10 02:34:44;;;;;;;75.87;30.23;;;-6.70;99.90;;;;;;5031991;28;20031;-74
2022/01/10 02:37:09;;;;;;;65.90;28.97;;;-6.60;99.90;;;;;;5032154;28;20112;-75
2022/01/10 02:39:36;;;;;;;56.27;24.67;;;-6.60;99.90;;;;;;5031994;28;20091;-74
2022/01/10 02:42:02;;;;;;;57.53;25.37;;;-6.70;99.90;;;;;;5033320;28;20475;-74
2022/01/10 02:44:29;;;;;;;52.17;24.27;;;-6.80;99.90;;;;;;5033017;28;20029;-74
2022/01/10 02:46:56;;;;;;;51.40;22.50;;;-6.80;99.90;;;;;;5033255;28;20293;-74
2022/01/10 02:49:27;;;;;;;47.97;23.47;;;-6.80;99.90;;;;;;5031594;28;20018;-74
2022/01/10 02:51:57;;;;;;;47.00;22.47;;;-6.80;99.90;;;;;;5031716;28;20042;-74
2022/01/10 02:54:24;;;;;;;53.37;25.53;;;-6.80;99.90;;;;;;5032939;28;20096;-74
2022/01/10 02:56:56;;;;;;;49.70;24.43;;;-6.70;99.90;;;;;;5031725;28;20017;-75
2022/01/10 02:59:23;;;;;;;51.73;23.87;;;-6.70;99.90;;;;;;5033015;28;20024;-74
2022/01/10 03:01:49;;;;;;;58.43;24.60;;;-6.70;99.90;;;;;;5031574;28;20275;-74
2022/01/10 03:04:15;;;;;;;50.53;23.50;;;-6.70;99.90;;;;;;5032839;28;20483;-74
2022/01/10 03:06:42;;;;;;;54.27;24.80;;;-6.70;99.90;;;;;;5032890;28;20028;-75
2022/01/10 03:09:10;;;;;;;47.07;23.33;;;-6.70;99.90;;;;;;5032739;28;20525;-74
2022/01/10 03:11:38;;;;;;;53.27;23.90;;;-6.70;99.90;;;;;;5032588;28;20138;-75
2022/01/10 03:14:04;;;;;;;48.17;22.63;;;-6.60;99.90;;;;;;5032738;28;20053;-74
2022/01/10 03:16:29;;;;;;;51.13;23.23;;;-6.60;99.90;;;;;;5032469;28;20511;-74
2022/01/10 03:18:55;;;;;;;47.80;23.17;;;-6.60;99.90;;;;;;5032711;28;20155;-75
2022/01/10 03:21:21;;;;;;;55.00;22.43;;;-6.60;99.90;;;;;;5031259;28;20107;-74
2022/01/10 03:23:51;;;;;;;56.53;24.93;;;-6.60;99.90;;;;;;5032501;28;20037;-74
2022/01/10 03:26:18;;;;;;;76.87;31.53;;;-6.50;99.90;;;;;;5032985;28;20475;-74
2022/01/10 03:28:44;;;;;;;62.50;28.70;;;-6.50;99.90;;;;;;5037321;28;20009;-75
2022/01/10 03:31:09;;;;;;;65.63;30.50;;;-6.40;99.90;;;;;;5034327;28;20108;-74
2022/01/10 03:33:35;;;;;;;60.63;29.03;;;-6.20;99.90;;;;;;5044545;28;20071;-74
2022/01/10 03:36:00;;;;;;;49.78;25.45;;;-6.20;99.90;;;;;;5032223;28;20029;-74
2022/01/10 03:38:26;;;;;;;49.73;24.53;;;-6.30;99.90;;;;;;5014426;28;20120;-74
2022/01/10 03:40:52;;;;;;;43.37;21.73;;;-6.30;99.90;;;;;;5032060;28;20021;-74
2022/01/10 03:43:17;;;;;;;38.47;19.70;;;-6.40;99.90;;;;;;5032183;28;20398;-76
2022/01/10 03:45:43;;;;;;;36.23;17.23;;;-6.40;99.90;;;;;;5047456;28;20048;-75
2022/01/10 03:48:09;;;;;;;36.67;17.50;;;-6.50;99.90;;;;;;5052229;28;20378;-75
2022/01/10 03:50:35;;;;;;;33.17;17.93;;;-6.50;99.90;;;;;;5051842;28;20064;-75
2022/01/10 03:53:01;;;;;;;39.33;18.50;;;-6.60;99.90;;;;;;5051808;28;20057;-74
2022/01/10 03:55:27;;;;;;;39.93;19.53;;;-6.60;99.90;;;;;;5051754;28;20056;-74
2022/01/10 03:57:52;;;;;;;35.10;18.10;;;-6.60;99.90;;;;;;5067091;28;20025;-74
2022/01/10 04:00:18;;;;;;;34.40;17.43;;;-6.60;99.90;;;;;;5050934;28;20063;-74
2022/01/10 04:02:51;;;;;;;35.63;18.37;;;-6.70;99.90;;;;;;5051923;28;20017;-74
2022/01/10 04:05:17;;;;;;;40.63;18.93;;;-6.70;99.90;;;;;;5033798;28;20135;-74
2022/01/10 04:07:42;;;;;;;45.43;20.33;;;-6.70;99.90;;;;;;5024877;28;20115;-75
2022/01/10 04:10:08;;;;;;;41.00;17.33;;;-6.70;99.90;;;;;;5013931;28;20109;-76
2022/01/10 04:12:33;;;;;;;38.87;17.53;;;-6.70;99.90;;;;;;5031507;28;20048;-75
2022/01/10 04:14:59;;;;;;;39.30;18.23;;;-6.80;99.90;;;;;;5031527;28;20025;-75
2022/01/10 04:17:25;;;;;;;33.60;15.53;;;-6.70;99.90;;;;;;5031584;28;20025;-75
2022/01/10 04:19:50;;;;;;;29.57;15.87;;;-6.70;99.90;;;;;;5031773;28;20111;-75
2022/01/10 04:22:16;;;;;;;33.33;15.87;;;-6.80;99.90;;;;;;5013848;28;20017;-75
2022/01/10 04:24:42;;;;;;;36.83;17.30;;;-6.80;99.90;;;;;;5013730;28;20083;-75
2022/01/10 04:27:07;;;;;;;34.33;16.87;;;-6.80;99.90;;;;;;5031505;28;20022;-75
2022/01/10 04:29:33;;;;;;;30.10;16.03;;;-6.80;99.90;;;;;;5013537;28;20025;-75
2022/01/10 04:32:00;;;;;;;28.13;15.13;;;-6.80;99.90;;;;;;5013578;28;20029;-75
2022/01/10 04:34:26;;;;;;;35.30;14.47;;;-6.80;99.90;;;;;;5031276;28;20067;-75
2022/01/10 04:36:51;;;;;;;31.77;15.83;;;-6.90;99.90;;;;;;5031296;28;20391;-76
2022/01/10 04:39:17;;;;;;;35.40;18.30;;;-6.90;99.90;;;;;;5013523;28;20438;-74
2022/01/10 04:41:43;;;;;;;37.87;15.70;;;-6.90;99.90;;;;;;5013443;28;20018;-75
2022/01/10 04:44:08;;;;;;;34.57;16.47;;;-6.80;99.90;;;;;;5031153;28;20030;-75
2022/01/10 04:46:34;;;;;;;32.17;16.33;;;-6.80;99.90;;;;;;5013382;28;20125;-75
2022/01/10 04:49:01;;;;;;;36.20;17.27;;;-6.90;99.90;;;;;;5031225;28;20468;-76
2022/01/10 04:51:29;;;;;;;33.57;16.97;;;-6.90;99.90;;;;;;5013250;28;20029;-75
2022/01/10 04:53:55;;;;;;;35.43;15.70;;;-7.00;99.90;;;;;;5031398;28;20037;-75
2022/01/10 04:56:21;;;;;;;37.07;17.33;;;-7.10;99.90;;;;;;5013347;28;20021;-75
2022/01/10 04:58:48;;;;;;;34.53;16.43;;;-7.10;99.90;;;;;;5030130;28;20033;-75
2022/01/10 05:01:15;;;;;;;35.90;17.93;;;-7.20;99.90;;;;;;5063052;28;20076;-75
2022/01/10 05:03:41;;;;;;;38.40;20.33;;;-7.20;99.90;;;;;;5030983;28;20034;-75
2022/01/10 05:06:07;;;;;;;41.30;21.13;;;-7.10;99.90;;;;;;5031151;28;20028;-75
2022/01/10 05:08:33;;;;;;;43.77;22.67;;;-7.00;99.90;;;;;;5031059;28;20018;-75
2022/01/10 05:10:58;;;;;;;49.10;21.08;;;-6.70;99.90;;;;;;5032346;28;20034;-75
2022/01/10 05:13:24;;;;;;;49.90;23.40;;;-6.50;99.90;;;;;;5066870;28;20064;-75
2022/01/10 05:15:51;;;;;;;58.63;28.20;;;-6.20;99.90;;;;;;5034823;28;20100;-75
2022/01/10 05:18:19;;;;;;;71.07;29.92;;;-6.00;99.90;;;;;;5034854;28;20501;-75
2022/01/10 05:20:46;;;;;;;80.30;33.33;;;-5.90;99.90;;;;;;5066709;28;20026;-75
2022/01/10 05:23:12;;;;;;;59.75;27.42;;;-5.90;99.90;;;;;;5034767;28;20032;-75
2022/01/10 05:25:40;;;;;;;69.80;31.13;;;-5.80;99.90;;;;;;5034688;28;20021;-75
2022/01/10 05:28:07;;;;;;;77.78;32.13;;;-5.70;99.90;;;;;;5034715;28;20109;-75
2022/01/10 05:30:32;;;;;;;72.07;31.95;;;-5.70;99.90;;;;;;5066502;28;20022;-75
2022/01/10 05:32:58;;;;;;;70.57;32.35;;;-5.70;99.90;;;;;;5034643;28;20029;-76
2022/01/10 05:35:24;;;;;;;73.55;34.47;;;-5.60;99.90;;;;;;5034537;28;20025;-75
2022/01/10 05:37:50;;;;;;;63.63;29.67;;;-5.60;99.90;;;;;;5034492;28;20022;-75
2022/01/10 05:40:16;;;;;;;74.03;36.25;;;-5.60;99.90;;;;;;5034398;28;20032;-75
2022/01/10 05:42:43;;;;;;;81.88;34.85;;;-5.60;99.90;;;;;;5034440;28;20025;-75
2022/01/10 05:45:09;;;;;;;83.78;36.42;;;-5.60;99.90;;;;;;5066252;28;20030;-75
2022/01/10 05:47:40;;;;;;;82.40;38.15;;;-5.60;99.90;;;;;;5034345;28;20022;-75
2022/01/10 05:50:07;;;;;;;79.43;36.63;;;-5.70;99.90;;;;;;5066261;28;20048;-75
2022/01/10 05:52:33;;;;;;;75.45;35.05;;;-5.70;99.90;;;;;;5034070;28;20036;-75
2022/01/10 05:54:58;;;;;;;81.80;36.33;;;-5.70;99.90;;;;;;5032722;28;20034;-75
2022/01/10 05:57:25;;;;;;;71.55;33.90;;;-5.70;99.90;;;;;;5023258;28;20028;-75
2022/01/10 05:59:50;;;;;;;71.80;31.80;;;-5.80;99.90;;;;;;5042319;28;20369;-75
2022/01/10 06:02:16;;;;;;;82.80;36.22;;;-5.80;99.90;;;;;;5041584;28;20028;-75
2022/01/10 06:04:41;;;;;;;69.25;32.35;;;-5.70;99.90;;;;;;5020006;28;20091;-75
2022/01/10 06:07:07;;;;;;;82.53;38.75;;;-5.70;99.90;;;;;;5038902;28;20034;-75
2022/01/10 06:09:33;;;;;;;78.05;35.72;;;-5.70;99.90;;;;;;5047425;28;20033;-75
2022/01/10 06:11:58;;;;;;;87.27;36.60;;;-5.70;99.90;;;;;;5041381;28;20064;-75
2022/01/10 06:14:24;;;;;;;77.22;36.00;;;-5.70;99.90;;;;;;5038599;28;20029;-75
2022/01/10 06:16:49;;;;;;;76.68;34.13;;;-5.70;99.90;;;;;;5042032;28;20018;-74
2022/01/10 06:19:15;;;;;;;73.57;36.03;;;-5.70;99.90;;;;;;5035336;28;20021;-75
2022/01/10 06:21:41;;;;;;;74.90;36.13;;;-5.70;99.90;;;;;;5037371;28;20026;-74
2022/01/10 06:24:06;;;;;;;83.13;37.50;;;-5.70;99.90;;;;;;5038928;28;20407;-75
2022/01/10 06:26:32;;;;;;;84.47;38.20;;;-5.70;99.90;;;;;;5035906;28;20532;-74
2022/01/10 06:28:58;;;;;;;83.18;37.53;;;-5.70;99.90;;;;;;5040313;28;20046;-73
2022/01/10 06:31:23;;;;;;;94.75;39.67;;;-5.70;99.90;;;;;;5038797;28;20471;-75
2022/01/10 06:33:49;;;;;;;83.00;35.63;;;-5.70;99.90;;;;;;5040067;28;20021;-74
2022/01/10 06:36:15;;;;;;;82.00;40.73;;;-5.70;99.90;;;;;;5020294;28;20128;-74
2022/01/10 06:38:40;;;;;;;75.65;38.40;;;-5.70;99.90;;;;;;5043195;28;20517;-73
2022/01/10 06:41:06;;;;;;;81.70;39.03;;;-5.70;99.90;;;;;;5039301;28;20045;-74
2022/01/10 06:43:31;;;;;;;85.65;38.97;;;-5.80;99.90;;;;;;5039814;28;20535;-74
2022/01/10 06:45:57;;;;;;;76.70;38.03;;;-5.80;99.90;;;;;;5037620;28;20037;-74
2022/01/10 06:48:23;;;;;;;78.40;40.17;;;-5.80;99.90;;;;;;5038643;28;20025;-74
2022/01/10 06:50:48;;;;;;;89.70;41.40;;;-5.90;99.90;;;;;;5037583;28;20028;-74
2022/01/10 06:53:15;;;;;;;100.23;45.53;;;-5.90;99.90;;;;;;5036781;28;20041;-74
2022/01/10 06:55:41;;;;;;;100.65;44.97;;;-5.80;99.90;;;;;;5034635;28;20056;-74
2022/01/10 06:58:06;;;;;;;101.57;45.88;;;-5.90;99.90;;;;;;5033425;28;20076;-75
2022/01/10 07:00:32;;;;;;;98.18;44.63;;;-5.80;99.90;;;;;;5031957;28;20135;-74
2022/01/10 07:02:58;;;;;;;95.13;48.22;;;-5.80;99.90;;;;;;5020250;28;20021;-75
2022/01/10 07:05:24;;;;;;;97.85;46.75;;;-5.80;99.90;;;;;;5020735;28;20086;-74
2022/01/10 07:07:49;;;;;;;145.60;63.57;;;-5.90;99.90;;;;;;5021911;28;20020;-76
2022/01/10 07:10:15;;;;;;;134.05;59.47;;;-5.80;99.90;;;;;;5021436;28;20213;-74
2022/01/10 07:12:40;;;;;;;90.70;47.13;;;-5.80;99.90;;;;;;5041553;28;20479;-74
2022/01/10 07:15:07;;;;;;;105.72;48.35;;;-5.80;99.90;;;;;;5048771;28;20148;-74
2022/01/10 07:17:33;;;;;;;102.65;47.58;;;-5.80;99.90;;;;;;5038471;28;20053;-74
2022/01/10 07:19:59;;;;;;;102.17;48.97;;;-5.80;99.90;;;;;;5039608;28;20017;-74
2022/01/10 07:22:25;;;;;;;113.43;52.10;;;-5.70;99.90;;;;;;5037919;28;20021;-75
2022/01/10 07:24:51;;;;;;;132.88;58.97;;;-5.80;99.90;;;;;;5038066;28;20025;-74
2022/01/10 07:27:17;;;;;;;105.32;48.83;;;-5.70;99.90;;;;;;5039558;28;20053;-74
2022/01/10 07:29:43;;;;;;;107.03;47.53;;;-5.70;99.90;;;;;;5046619;28;20039;-74
2022/01/10 07:32:08;;;;;;;96.05;46.80;;;-5.70;99.90;;;;;;5038823;28;20041;-74
2022/01/10 07:34:34;;;;;;;98.90;46.78;;;-5.60;99.90;;;;;;5041696;28;20033;-74
2022/01/10 07:36:59;;;;;;;91.43;41.75;;;-5.60;99.90;;;;;;5037750;28;20021;-75
2022/01/10 07:39:25;;;;;;;97.00;42.95;;;-5.50;99.90;;;;;;5039043;28;20044;-74
2022/01/10 07:41:51;;;;;;;102.35;46.33;;;-5.50;99.90;;;;;;5025563;28;20021;-75
2022/01/10 07:44:16;;;;;;;104.10;47.17;;;-5.40;99.90;;;;;;5039973;28;20021;-74
2022/01/10 07:46:42;;;;;;;93.35;46.05;;;-5.30;99.90;;;;;;5038660;28;20068;-74
2022/01/10 07:49:07;;;;;;;99.97;48.17;;;-5.20;99.90;;;;;;5025019;28;20021;-75
2022/01/10 07:51:33;;;;;;;91.75;46.33;;;-5.10;99.90;;;;;;5023635;28;20048;-74
2022/01/10 07:53:59;;;;;;;92.00;37.45;;;-5.00;99.90;;;;;;5022062;28;20021;-74
2022/01/10 07:56:26;;;;;;;83.20;36.92;;;-4.90;99.90;;;;;;5037500;28;20025;-74
2022/01/10 07:58:52;;;;;;;88.32;39.47;;;-4.90;99.90;;;;;;5019877;28;20021;-74
2022/01/10 08:01:19;;;;;;;88.63;42.92;;;-4.80;99.90;;;;;;5037893;28;20567;-75
2022/01/10 08:03:46;;;;;;;80.25;37.17;;;-4.80;99.90;;;;;;5040887;28;20021;-76
2022/01/10 08:06:12;;;;;;;90.88;41.00;;;-4.80;99.90;;;;;;5023539;28;20417;-75
2022/01/10 08:08:38;;;;;;;79.95;36.78;;;-4.80;99.90;;;;;;5054632;28;20029;-75
2022/01/10 08:11:03;;;;;;;92.03;42.10;;;-4.90;99.90;;;;;;5026516;28;20553;-75
2022/01/10 08:13:29;;;;;;;74.15;37.38;;;-4.90;99.90;;;;;;5038306;28;20064;-76
2022/01/10 08:15:54;;;;;;;91.78;41.45;;;-4.90;99.90;;;;;;5024065;28;20112;-75
2022/01/10 08:18:20;;;;;;;85.95;38.03;;;-4.90;99.90;;;;;;5023284;28;20109;-75
2022/01/10 08:20:46;;;;;;;85.93;39.58;;;-4.90;99.90;;;;;;5038263;28;20100;-75
2022/01/10 08:23:13;;;;;;;89.97;40.53;;;-4.90;99.90;;;;;;5052569;28;20020;-75
2022/01/10 08:25:39;;;;;;;66.45;34.08;;;-4.90;99.90;;;;;;5024411;28;20493;-75
2022/01/10 08:28:05;;;;;;;68.60;32.53;;;-5.00;99.90;;;;;;5038772;28;20034;-75
2022/01/10 08:30:31;;;;;;;83.40;37.20;;;-5.00;99.90;;;;;;5039784;28;20029;-75
2022/01/10 08:32:56;;;;;;;77.38;37.63;;;-5.00;99.90;;;;;;5039593;28;20048;-75
2022/01/10 08:35:22;;;;;;;79.85;39.95;;;-5.10;99.90;;;;;;5021394;28;20169;-74
2022/01/10 08:37:48;;;;;;;88.05;41.53;;;-5.00;99.90;;;;;;5039015;28;20018;-75
2022/01/10 08:40:14;;;;;;;88.35;41.25;;;-5.00;99.90;;;;;;5023575;28;20024;-75
2022/01/10 08:42:40;;;;;;;87.35;37.42;;;-5.10;99.90;;;;;;5039736;28;20025;-75
2022/01/10 08:45:08;;;;;;;82.15;39.03;;;-5.10;99.90;;;;;;5019646;28;20387;-75
2022/01/10 08:47:34;;;;;;;74.40;33.10;;;-5.10;99.90;;;;;;5021309;28;20014;-75
2022/01/10 08:49:59;;;;;;;85.35;37.42;;;-5.10;99.90;;;;;;5038612;28;20039;-75
2022/01/10 08:52:25;;;;;;;87.50;35.75;;;-5.10;99.90;;;;;;5023600;28;20022;-75
2022/01/10 08:54:50;;;;;;;75.82;33.92;;;-5.10;99.90;;;;;;5024228;28;20087;-75
2022/01/10 08:57:19;;;;;;;91.88;38.88;;;-5.10;99.90;;;;;;5024026;28;20021;-75
2022/01/10 08:59:45;;;;;;;67.35;25.30;;;-5.10;99.90;;;;;;5023258;28;20025;-75
2022/01/10 09:02:11;;;;;;;64.07;28.30;;;-5.10;99.90;;;;;;5039680;28;20466;-75
2022/01/10 09:04:40;;;;;;;48.33;27.77;;;-5.10;99.90;;;;;;5024203;28;20112;-75
2022/01/10 09:07:08;;;;;;;56.42;26.70;;;-5.10;99.90;;;;;;5033582;28;20032;-75
2022/01/10 09:09:34;;;;;;;71.03;26.92;;;-5.10;99.90;;;;;;5050818;28;20024;-75
2022/01/10 09:12:00;;;;;;;48.10;22.30;;;-5.10;99.90;;;;;;5050838;28;20037;-75
2022/01/10 09:14:25;;;;;;;60.28;27.05;;;-5.10;99.90;;;;;;5013565;28;20035;-75
2022/01/10 09:16:51;;;;;;;58.08;25.58;;;-5.10;99.90;;;;;;5030996;28;20033;-75
2022/01/10 09:19:17;;;;;;;59.40;25.67;;;-5.00;99.90;;;;;;5013164;28;20350;-75
2022/01/10 09:21:42;;;;;;;64.95;25.30;;;-4.90;99.90;;;;;;5013170;28;20028;-75
2022/01/10 09:24:08;;;;;;;55.17;23.15;;;-4.90;99.90;;;;;;5032831;28;20029;-75
2022/01/10 09:26:34;;;;;;;58.03;23.05;;;-4.90;99.90;;;;;;5050801;28;20051;-75
2022/01/10 09:29:00;;;;;;;60.05;24.45;;;-4.80;99.90;;;;;;5032840;28;20044;-75
2022/01/10 09:31:26;;;;;;;61.92;27.50;;;-4.80;99.90;;;;;;5050634;28;20017;-75
2022/01/10 09:33:55;;;;;;;74.68;28.33;;;-4.70;99.90;;;;;;5032705;28;20126;-75
2022/01/10 09:36:23;;;;;;;71.90;27.77;;;-4.70;99.90;;;;;;5032752;28;20067;-75
2022/01/10 09:38:49;;;;;;;64.50;27.33;;;-4.60;99.90;;;;;;5066048;28;20437;-75
2022/01/10 09:41:15;;;;;;;61.53;25.52;;;-4.60;99.90;;;;;;5050684;28;20033;-75
2022/01/10 09:43:48;;;;;;;74.30;26.92;;;-4.60;99.90;;;;;;5032712;28;20033;-75
2022/01/10 09:46:13;;;;;;;66.18;25.45;;;-4.50;99.90;;;;;;5050010;28;20116;-75
2022/01/10 09:48:39;;;;;;;68.88;27.30;;;-4.50;99.90;;;;;;5031927;28;20112;-75
2022/01/10 09:51:05;;;;;;;58.58;23.77;;;-4.40;99.90;;;;;;5021050;28;20032;-75
2022/01/10 09:53:30;;;;;;;56.67;22.27;;;-4.40;99.90;;;;;;5011703;28;20051;-76
2022/01/10 09:55:56;;;;;;;58.58;25.27;;;-4.40;99.90;;;;;;5049679;28;20359;-75
2022/01/10 09:58:22;;;;;;;50.97;21.48;;;-4.30;99.90;;;;;;5032507;28;20121;-75
2022/01/10 10:00:48;;;;;;;49.67;22.13;;;-4.30;99.90;;;;;;5034051;28;20029;-75
2022/01/10 10:03:14;;;;;;;48.10;19.27;;;-4.30;99.90;;;;;;5016338;28;20028;-75
2022/01/10 10:05:42;;;;;;;54.25;21.35;;;-4.20;99.90;;;;;;5016148;28;20045;-75
2022/01/10 10:08:08;;;;;;;51.85;22.73;;;-4.20;99.90;;;;;;5037324;28;20021;-75
2022/01/10 10:10:35;;;;;;;52.90;21.77;;;-4.10;99.90;;;;;;5035861;28;20079;-75
2022/01/10 10:13:01;;;;;;;46.08;21.35;;;-4.10;99.90;;;;;;5053729;28;20037;-75
2022/01/10 10:15:31;;;;;;;45.13;19.52;;;-4.00;99.90;;;;;;5053697;28;20048;-75
2022/01/10 10:17:57;;;;;;;44.45;19.13;;;-4.00;99.90;;;;;;5054322;28;20021;-75
2022/01/10 10:20:23;;;;;;;44.90;17.20;;;-4.00;99.90;;;;;;5035718;28;20017;-75
2022/01/10 10:22:52;;;;;;;33.47;15.65;;;-3.90;99.90;;;;;;5053575;28;20520;-75
2022/01/10 10:25:19;;;;;;;43.88;19.00;;;-3.90;99.90;;;;;;5053581;28;20025;-75
2022/01/10 10:27:48;;;;;;;36.72;15.32;;;-3.80;99.90;;;;;;5053417;28;20113;-75
2022/01/10 10:30:26;;;;;;;32.38;15.45;;;-3.80;99.90;;;;;;5042079;28;20060;-75
2022/01/10 10:32:52;;;;;;;31.98;13.18;;;-3.80;99.90;;;;;;5015517;28;20042;-75
2022/01/10 10:35:18;;;;;;;31.42;14.80;;;-3.90;99.90;;;;;;5032775;28;20026;-75
2022/01/10 10:37:46;;;;;;;33.85;15.55;;;-3.90;99.90;;;;;;5033373;28;20021;-75
2022/01/10 10:40:14;;;;;;;47.05;21.70;;;-3.80;99.90;;;;;;5015588;28;20022;-75
2022/01/10 10:42:42;;;;;;;116.22;43.72;;;-3.80;99.90;;;;;;5015478;28;20021;-75
2022/01/10 10:45:11;;;;;;;148.25;55.53;;;-3.70;99.90;;;;;;5033212;28;20357;-75
2022/01/10 10:47:38;;;;;;;93.03;43.22;;;-3.60;99.90;;;;;;5015381;28;20021;-75
2022/01/10 10:50:07;;;;;;;77.18;35.80;;;-3.60;99.90;;;;;;5033201;28;20029;-75
2022/01/10 10:52:34;;;;;;;47.13;21.92;;;-3.50;99.90;;;;;;5015268;28;20073;-75
2022/01/10 10:55:09;;;;;;;91.88;42.10;;;-3.40;99.90;;;;;;5015299;28;20017;-75
2022/01/10 10:57:36;;;;;;;77.03;33.75;;;-3.30;99.90;;;;;;5033067;28;20030;-75
2022/01/10 11:00:05;;;;;;;41.30;16.50;;;-3.20;99.90;;;;;;5032956;28;20021;-75
2022/01/10 11:02:31;;;;;;;40.15;18.33;;;-3.20;99.90;;;;;;5015157;28;20022;-75
2022/01/10 11:04:58;;;;;;;30.25;14.45;;;-3.20;99.90;;;;;;5015449;28;20029;-75
2022/01/10 11:07:27;;;;;;;26.20;12.02;;;-3.20;99.90;;;;;;5032872;28;20080;-75
2022/01/10 11:09:53;;;;;;;24.73;12.80;;;-3.20;99.90;;;;;;5014622;28;20022;-75
2022/01/10 11:12:23;;;;;;;20.63;11.05;;;-3.20;99.90;;;;;;5032754;28;20121;-75
2022/01/10 11:14:51;;;;;;;27.50;12.82;;;-3.20;99.90;;;;;;5014921;28;20394;-75
2022/01/10 11:17:20;;;;;;;29.17;13.45;;;-3.10;99.90;;;;;;5032666;28;20180;-75
2022/01/10 11:20:08;;;;;;;30.92;14.60;;;-3.10;99.90;;;;;;5032760;28;20021;-75
2022/01/10 11:22:34;;;;;;;40.15;17.00;;;-3.10;99.90;;;;;;5047783;28;20139;-75
2022/01/10 11:25:02;;;;;;;34.65;16.98;;;-3.00;99.90;;;;;;5014675;28;20067;-75
2022/01/10 11:27:42;;;;;;;32.85;15.80;;;-3.00;99.90;;;;;;5014689;28;20022;-75
2022/01/10 11:30:28;;;;;;;31.95;14.52;;;-3.00;99.90;;;;;;5014667;28;20155;-75
2022/01/10 11:33:10;;;;;;;77.85;35.03;;;-3.00;99.90;;;;;;5032346;28;20515;-75
2022/01/10 11:35:39;;;;;;;63.78;24.77;;;-3.00;99.90;;;;;;5014504;28;20025;-75
2022/01/10 11:38:29;;;;;;;51.50;20.85;;;-2.90;99.90;;;;;;5032324;28;20033;-75
2022/01/10 11:41:19;;;;;;;71.22;30.27;;;-3.00;99.90;;;;;;5023770;28;20089;-75
2022/01/10 11:43:55;;;;;;;61.20;23.20;;;-3.00;99.90;;;;;;5046267;28;20047;-75
2022/01/10 11:46:33;;;;;;;39.05;17.88;;;-3.00;99.90;;;;;;5052835;28;20041;-75
2022/01/10 11:49:08;;;;;;;27.13;13.57;;;-2.90;99.90;;;;;;5014274;28;20395;-75
2022/01/10 11:51:50;;;;;;;41.35;15.52;;;-2.90;99.90;;;;;;5032364;28;20021;-75
2022/01/10 11:54:34;;;;;;;28.73;13.85;;;-2.90;99.90;;;;;;5047303;28;20029;-75
2022/01/10 11:57:01;;;;;;;55.70;23.35;;;-2.90;99.90;;;;;;5014173;28;20391;-75
2022/01/10 11:59:26;;;;;;;36.83;16.02;;;-2.90;99.90;;;;;;5050535;28;20028;-75
2022/01/10 12:02:04;;;;;;;40.75;18.63;;;-2.90;99.90;;;;;;5067042;28;20597;-75
2022/01/10 12:04:35;;;;;;;52.63;21.25;;;-2.90;99.90;;;;;;5033698;28;20021;-75
2022/01/10 12:07:03;;;;;;;33.30;14.70;;;-2.90;99.90;;;;;;5051648;28;20027;-75
2022/01/10 12:09:29;;;;;;;37.17;16.48;;;-2.90;99.90;;;;;;5033662;28;20056;-76
2022/01/10 12:11:57;;;;;;;44.40;20.83;;;-2.90;99.90;;;;;;5051755;28;20119;-75
2022/01/10 12:14:24;;;;;;;49.17;19.50;;;-2.90;99.90;;;;;;5033741;28;20402;-75
2022/01/10 12:16:51;;;;;;;111.90;39.28;;;-2.90;99.90;;;;;;5051518;28;20023;-75
2022/01/10 12:19:18;;;;;;;139.38;47.83;;;-2.80;99.90;;;;;;5029965;28;20025;-75
2022/01/10 12:21:44;;;;;;;45.58;17.70;;;-2.80;99.90;;;;;;5046511;28;20017;-75
2022/01/10 12:24:10;;;;;;;47.15;18.27;;;-2.80;99.90;;;;;;5033486;28;20017;-75
2022/01/10 12:26:37;;;;;;;29.08;14.48;;;-2.80;99.90;;;;;;5051344;28;20059;-75
2022/01/10 12:29:04;;;;;;;38.30;14.73;;;-2.80;99.90;;;;;;5033443;28;20031;-76
2022/01/10 12:31:31;;;;;;;71.68;28.27;;;-2.80;99.90;;;;;;5033084;28;20013;-75
2022/01/10 12:33:59;;;;;;;50.80;23.27;;;-2.70;99.90;;;;;;5066400;28;20566;-75
2022/01/10 12:36:27;;;;;;;36.88;16.27;;;-2.70;99.90;;;;;;5033240;28;20094;-75